Time;durP1;ratioP1;P1;durP2;ratioP2;P2;SDS_P1;SDS_P2;PMS_P1;PMS_P2;Temp;Humidity;BMP_temperature;BMP_pressure;BME280_temperature;BME280_humidity;BME280_pressure;Samples;Min_cycle;Max_cycle;Signal;HPM_P1;HPM_P2
2022/10/09 00:00:38;;;;;;;;;;;14.40;62.50;;;;;;5047104;28;83018;-38
2022/10/09 00:03:04;;;;;;;;;;;14.40;62.60;;;;;;5047174;27;82029;-37
2022/10/09 00:05:30;;;;;;;;;;;14.40;62.60;;;;;;5046619;27;82915;-38
2022/10/09 00:07:55;;;;;;;;;;;14.40;62.60;;;;;;5047032;28;82271;-37
2022/10/09 00:10:21;;;;;;;;;;;14.40;62.60;;;;;;5047417;28;82186;-38
2022/10/09 00:12:46;;;;;;;;;;;14.30;62.50;;;;;;5049790;28;82776;-37
2022/10/09 00:15:12;;;;;;;;;;;14.30;62.50;;;;;;5046847;28;82195;-38
2022/10/09 00:17:38;;;;;;;;;;;14.40;62.70;;;;;;5047050;27;82422;-37
2022/10/09 00:20:04;;;;;;;;;;;14.30;62.60;;;;;;5046798;27;82891;-38
2022/10/09 00:22:29;;;;;;;;;;;14.30;62.60;;;;;;5046491;27;81407;-37
2022/10/09 00:24:55;;;;;;;;;;;14.30;62.60;;;;;;5047180;28;81990;-37
2022/10/09 00:27:23;;;;;;;;;;;14.30;62.60;;;;;;5046854;28;82878;-38
2022/10/09 00:29:49;;;;;;;;;;;14.30;62.60;;;;;;5045821;27;83027;-37
2022/10/09 00:32:15;;;;;;;;;;;14.30;62.50;;;;;;5046095;27;83426;-37
2022/10/09 00:34:40;;;;;;;;;;;14.20;62.50;;;;;;5049349;28;83032;-38
2022/10/09 00:37:06;;;;;;;;;;;14.20;62.60;;;;;;5046857;27;81970;-37
2022/10/09 00:39:32;;;;;;;;;;;14.20;62.60;;;;;;5046553;28;82216;-38
2022/10/09 00:41:57;;;;;;;;;;;14.20;62.60;;;;;;5046777;27;81940;-37
2022/10/09 00:44:41;;;;;;;;;;;14.20;62.60;;;;;;5046533;28;81970;-38
2022/10/09 00:47:10;;;;;;;;;;;14.20;62.60;;;;;;5047115;27;82378;-37
2022/10/09 00:49:36;;;;;;;;;;;14.20;62.60;;;;;;5046645;28;81977;-38
2022/10/09 00:52:05;;;;;;;;;;;14.10;62.50;;;;;;5045096;28;83191;-38
2022/10/09 00:54:32;;;;;;;;;;;14.10;62.60;;;;;;5045441;27;83912;-37
2022/10/09 00:56:58;;;;;;;;;;;14.10;62.60;;;;;;5048763;28;82092;-38
2022/10/09 00:59:24;;;;;;;;;;;14.10;62.50;;;;;;5046275;28;83097;-38
2022/10/09 01:01:49;;;;;;;;;;;14.10;62.70;;;;;;5046360;27;81989;-38
2022/10/09 01:04:15;;;;;;;;;;;14.10;62.60;;;;;;5046269;28;82585;-37
2022/10/09 01:06:43;;;;;;;;;;;14.10;62.60;;;;;;5046137;28;82805;-37
2022/10/09 01:09:38;;;;;;;;;;;14.10;62.70;;;;;;5046309;28;82086;-38
2022/10/09 01:12:32;;;;;;;;;;;14.00;62.60;;;;;;5041054;28;82643;-37
2022/10/09 01:14:58;;;;;;;;;;;14.00;62.70;;;;;;5040558;27;82950;-37
2022/10/09 01:17:42;;;;;;;;;;;14.00;62.60;;;;;;5046262;27;81641;-38
2022/10/09 01:20:20;;;;;;;;;;;14.00;62.50;;;;;;5048141;27;83121;-37
2022/10/09 01:22:48;;;;;;;;;;;14.00;62.70;;;;;;5046065;27;81866;-37
2022/10/09 01:25:18;;;;;;;;;;;14.00;62.60;;;;;;5046122;27;82167;-38
2022/10/09 01:27:44;;;;;;;;;;;14.00;62.60;;;;;;5045698;28;83574;-37
2022/10/09 01:30:11;;;;;;;;;;;14.00;62.60;;;;;;5045704;27;82751;-37
2022/10/09 01:32:38;;;;;;;;;;;13.90;62.50;;;;;;5045896;28;82099;-38
2022/10/09 01:35:05;;;;;;;;;;;14.00;62.70;;;;;;5045765;28;82987;-37
2022/10/09 01:37:32;;;;;;;;;;;13.90;62.50;;;;;;5046031;28;81179;-38
2022/10/09 01:39:58;;;;;;;;;;;13.90;62.60;;;;;;5046020;28;81956;-38
2022/10/09 01:42:25;;;;;;;;;;;13.90;62.70;;;;;;5048653;27;83021;-37
2022/10/09 01:44:51;;;;;;;;;;;13.90;62.60;;;;;;5045798;27;82792;-37
2022/10/09 01:47:17;;;;;;;;;;;13.90;62.70;;;;;;5049369;28;82333;-38
2022/10/09 01:49:51;;;;;;;;;;;13.90;62.70;;;;;;5049317;27;82051;-38
2022/10/09 01:52:32;;;;;;;;;;;13.80;62.70;;;;;;5049408;27;82348;-37
2022/10/09 01:55:01;;;;;;;;;;;13.80;62.60;;;;;;5049241;28;83042;-37
2022/10/09 01:57:40;;;;;;;;;;;13.80;62.60;;;;;;5049045;28;82042;-37
2022/10/09 02:00:07;;;;;;;;;;;13.80;62.70;;;;;;5049256;27;82885;-37
2022/10/09 02:02:33;;;;;;;;;;;13.80;62.70;;;;;;5052366;27;82422;-37
2022/10/09 02:05:00;;;;;;;;;;;13.80;62.70;;;;;;5049216;27;81905;-37
2022/10/09 02:07:26;;;;;;;;;;;13.80;62.70;;;;;;5049145;28;82291;-37
2022/10/09 02:09:52;;;;;;;;;;;13.70;62.60;;;;;;5048482;27;83024;-38
2022/10/09 02:12:19;;;;;;;;;;;13.80;62.70;;;;;;5049023;27;83297;-38
2022/10/09 02:14:44;;;;;;;;;;;13.70;62.70;;;;;;5048682;28;82187;-37
2022/10/09 02:17:17;;;;;;;;;;;13.70;62.60;;;;;;5047388;28;82079;-38
2022/10/09 02:19:46;;;;;;;;;;;13.70;62.70;;;;;;5049044;27;81883;-38
2022/10/09 02:22:14;;;;;;;;;;;13.70;62.60;;;;;;5048550;27;82920;-38
2022/10/09 02:24:41;;;;;;;;;;;13.70;62.70;;;;;;5051060;27;81934;-38
2022/10/09 02:27:07;;;;;;;;;;;13.70;62.60;;;;;;5049218;28;82147;-37
2022/10/09 02:29:33;;;;;;;;;;;13.60;62.60;;;;;;5048857;27;82017;-38
2022/10/09 02:31:58;;;;;;;;;;;13.60;62.60;;;;;;5048787;27;82499;-37
2022/10/09 02:34:24;;;;;;;;;;;13.60;62.70;;;;;;5047714;27;84220;-37
2022/10/09 02:36:49;;;;;;;;;;;13.60;62.70;;;;;;5048855;28;81940;-37
2022/10/09 02:39:15;;;;;;;;;;;13.60;62.70;;;;;;5048446;28;83089;-37
2022/10/09 02:41:40;;;;;;;;;;;13.60;62.80;;;;;;5048495;28;82992;-37
2022/10/09 02:44:06;;;;;;;;;;;13.50;62.70;;;;;;5048630;27;81982;-38
2022/10/09 02:46:32;;;;;;;;;;;13.50;62.80;;;;;;5051323;28;82212;-37
2022/10/09 02:48:58;;;;;;;;;;;13.50;62.70;;;;;;5048497;27;82048;-38
2022/10/09 02:51:23;;;;;;;;;;;13.50;62.90;;;;;;5049082;28;81924;-37
2022/10/09 02:53:52;;;;;;;;;;;13.50;62.80;;;;;;5048277;27;82888;-37
2022/10/09 02:56:18;;;;;;;;;;;13.50;62.90;;;;;;5047933;27;82034;-37
2022/10/09 02:58:44;;;;;;;;;;;13.50;62.80;;;;;;5047692;27;83362;-37
2022/10/09 03:01:10;;;;;;;;;;;13.50;62.90;;;;;;5048372;28;83124;-38
2022/10/09 03:03:35;;;;;;;;;;;13.40;62.80;;;;;;5048049;28;82075;-37
2022/10/09 03:06:02;;;;;;;;;;;13.40;62.90;;;;;;5048441;28;81795;-37
2022/10/09 03:08:28;;;;;;;;;;;13.40;62.90;;;;;;5050714;27;82957;-37
2022/10/09 03:10:54;;;;;;;;;;;13.40;62.90;;;;;;5048329;27;82364;-38
2022/10/09 03:13:19;;;;;;;;;;;13.40;63.00;;;;;;5048059;27;83119;-37
2022/10/09 03:15:45;;;;;;;;;;;13.40;63.10;;;;;;5048564;27;81381;-37
2022/10/09 03:18:10;;;;;;;;;;;13.30;63.00;;;;;;5048119;28;81809;-37
2022/10/09 03:20:36;;;;;;;;;;;13.30;63.00;;;;;;5047952;28;83170;-38
2022/10/09 03:23:02;;;;;;;;;;;13.30;63.10;;;;;;5046975;28;83294;-37
2022/10/09 03:25:27;;;;;;;;;;;13.30;63.10;;;;;;5047641;28;83480;-37
2022/10/09 03:27:53;;;;;;;;;;;13.30;63.10;;;;;;5047825;28;83145;-38
2022/10/09 03:30:18;;;;;;;;;;;13.30;63.10;;;;;;5050428;28;81779;-37
2022/10/09 03:32:44;;;;;;;;;;;13.30;63.10;;;;;;5047594;28;83191;-38
2022/10/09 03:35:09;;;;;;;;;;;13.20;63.10;;;;;;5047792;27;82066;-37
2022/10/09 03:37:35;;;;;;;;;;;13.20;63.20;;;;;;5047854;28;82461;-37
2022/10/09 03:40:00;;;;;;;;;;;13.20;63.20;;;;;;5047722;27;83268;-37
2022/10/09 03:42:26;;;;;;;;;;;13.20;63.20;;;;;;5047657;28;81973;-37
2022/10/09 03:44:51;;;;;;;;;;;13.20;63.30;;;;;;5047555;28;81856;-37
2022/10/09 03:47:17;;;;;;;;;;;13.10;63.40;;;;;;5046730;27;83991;-37
2022/10/09 03:49:42;;;;;;;;;;;13.10;63.20;;;;;;5047622;28;81947;-37
2022/10/09 03:52:08;;;;;;;;;;;13.10;63.40;;;;;;5050053;28;82336;-37
2022/10/09 03:54:33;;;;;;;;;;;13.10;63.40;;;;;;5047369;28;82510;-37
2022/10/09 03:56:59;;;;;;;;;;;13.10;63.30;;;;;;5047559;28;82287;-37
2022/10/09 03:59:24;;;;;;;;;;;13.00;63.30;;;;;;5047230;28;83171;-37
2022/10/09 04:01:50;;;;;;;;;;;13.10;63.30;;;;;;5047179;28;82028;-37
2022/10/09 04:04:15;;;;;;;;;;;13.10;63.40;;;;;;5047750;28;81840;-38
2022/10/09 04:06:41;;;;;;;;;;;13.10;63.30;;;;;;5046862;27;83183;-37
2022/10/09 04:09:06;;;;;;;;;;;13.10;63.30;;;;;;5046538;28;82027;-37
2022/10/09 04:11:32;;;;;;;;;;;13.00;63.20;;;;;;5049125;28;82880;-37
2022/10/09 04:13:58;;;;;;;;;;;13.00;63.30;;;;;;5047164;27;82040;-37
2022/10/09 04:16:23;;;;;;;;;;;13.00;63.20;;;;;;5046998;28;82229;-37
2022/10/09 04:18:49;;;;;;;;;;;13.00;63.10;;;;;;5046867;28;82382;-37
2022/10/09 04:21:14;;;;;;;;;;;13.00;63.10;;;;;;5047070;28;82088;-38
2022/10/09 04:23:40;;;;;;;;;;;13.00;63.20;;;;;;5046108;28;82525;-37
2022/10/09 04:26:05;;;;;;;;;;;13.00;63.20;;;;;;5046792;27;82068;-37
2022/10/09 04:28:31;;;;;;;;;;;13.00;63.30;;;;;;5047307;28;81333;-37
2022/10/09 04:30:57;;;;;;;;;;;12.90;63.30;;;;;;5046788;28;81955;-38
2022/10/09 04:33:23;;;;;;;;;;;12.90;63.20;;;;;;5049411;28;82323;-37
2022/10/09 04:35:50;;;;;;;;;;;13.00;63.20;;;;;;5046131;28;82755;-38
2022/10/09 04:38:15;;;;;;;;;;;12.90;63.20;;;;;;5046491;28;83179;-37
2022/10/09 04:40:41;;;;;;;;;;;12.90;63.30;;;;;;5046565;27;82172;-37
2022/10/09 04:43:06;;;;;;;;;;;12.90;63.20;;;;;;5046859;28;82506;-37
2022/10/09 04:45:32;;;;;;;;;;;12.90;63.10;;;;;;5046593;28;82269;-37
2022/10/09 04:47:57;;;;;;;;;;;12.90;63.20;;;;;;5046670;28;82051;-37
2022/10/09 04:50:23;;;;;;;;;;;12.90;63.10;;;;;;5046607;27;82285;-37
2022/10/09 04:52:48;;;;;;;;;;;12.90;63.30;;;;;;5046907;28;81603;-37
2022/10/09 04:55:14;;;;;;;;;;;12.90;63.10;;;;;;5048965;27;82193;-37
2022/10/09 04:57:39;;;;;;;;;;;12.90;63.20;;;;;;5046445;27;82973;-37
2022/10/09 05:00:05;;;;;;;;;;;12.90;63.10;;;;;;5045770;28;83026;-37
2022/10/09 05:02:30;;;;;;;;;;;12.90;63.10;;;;;;5046524;28;83297;-37
2022/10/09 05:04:56;;;;;;;;;;;12.90;63.10;;;;;;5046163;28;82899;-37
2022/10/09 05:07:23;;;;;;;;;;;12.80;63.10;;;;;;5046617;27;81995;-37
2022/10/09 05:09:48;;;;;;;;;;;12.90;63.10;;;;;;5046332;28;82203;-37
2022/10/09 05:12:14;;;;;;;;;;;12.90;63.20;;;;;;5044556;28;86167;-38
2022/10/09 05:14:39;;;;;;;;;;;12.80;63.10;;;;;;5046443;28;82046;-37
2022/10/09 05:17:06;;;;;;;;;;;12.90;62.90;;;;;;5049348;28;82503;-37
2022/10/09 05:19:31;;;;;;;;;;;12.80;63.00;;;;;;5045975;27;82039;-37
2022/10/09 05:21:57;;;;;;;;;;;12.80;63.00;;;;;;5046232;28;81904;-37
2022/10/09 05:24:23;;;;;;;;;;;12.80;62.90;;;;;;5044888;27;84124;-37
2022/10/09 05:26:48;;;;;;;;;;;12.80;63.00;;;;;;5045789;28;82094;-37
2022/10/09 05:29:14;;;;;;;;;;;12.80;62.90;;;;;;5046091;27;82147;-37
2022/10/09 05:31:41;;;;;;;;;;;12.80;62.90;;;;;;5045901;28;83118;-37
2022/10/09 05:34:07;;;;;;;;;;;12.80;62.80;;;;;;5045911;27;81979;-37
2022/10/09 05:36:32;;;;;;;;;;;12.80;62.80;;;;;;5046144;28;81968;-37
2022/10/09 05:39:00;;;;;;;;;;;12.80;62.90;;;;;;5048395;28;83092;-38
2022/10/09 05:41:25;;;;;;;;;;;12.80;62.80;;;;;;5046262;27;82470;-37
2022/10/09 05:43:51;;;;;;;;;;;12.80;62.90;;;;;;5045594;28;83022;-37
2022/10/09 05:46:22;;;;;;;;;;;12.80;62.90;;;;;;5045845;27;82036;-37
2022/10/09 05:48:54;;;;;;;;;;;12.70;62.90;;;;;;5045125;27;82860;-38
2022/10/09 05:51:20;;;;;;;;;;;12.70;62.90;;;;;;5045389;28;83095;-37
2022/10/09 05:53:46;;;;;;;;;;;12.80;62.90;;;;;;5045625;28;82049;-38
2022/10/09 05:56:19;;;;;;;;;;;12.70;62.80;;;;;;5045801;27;82474;-37
2022/10/09 05:58:49;;;;;;;;;;;12.70;62.90;;;;;;5045542;28;82199;-37
2022/10/09 06:01:14;;;;;;;;;;;12.70;62.90;;;;;;5048113;27;81873;-37
2022/10/09 06:03:40;;;;;;;;;;;12.70;62.80;;;;;;5045429;28;83179;-37
2022/10/09 06:06:07;;;;;;;;;;;12.70;62.80;;;;;;5046193;28;81291;-37
2022/10/09 06:08:33;;;;;;;;;;;12.70;62.90;;;;;;5045377;28;81906;-37
2022/10/09 06:11:07;;;;;;;;;;;12.70;62.80;;;;;;5045323;27;83054;-37
2022/10/09 06:13:32;;;;;;;;;;;12.70;62.90;;;;;;5044874;28;82987;-37
2022/10/09 06:15:58;;;;;;;;;;;12.70;62.90;;;;;;5045481;28;83391;-37
2022/10/09 06:18:23;;;;;;;;;;;12.70;62.90;;;;;;5045199;28;83179;-37
2022/10/09 06:21:07;;;;;;;;;;;12.70;62.90;;;;;;5047902;28;81974;-37
2022/10/09 06:23:32;;;;;;;;;;;12.70;62.90;;;;;;5044734;28;82962;-37
2022/10/09 06:25:59;;;;;;;;;;;12.70;62.90;;;;;;5045424;27;81956;-37
2022/10/09 06:28:26;;;;;;;;;;;12.70;63.00;;;;;;5045200;27;82334;-37
2022/10/09 06:30:52;;;;;;;;;;;12.70;63.10;;;;;;5046287;27;82353;-37
2022/10/09 06:33:17;;;;;;;;;;;12.60;63.30;;;;;;5048666;28;82112;-37
2022/10/09 06:35:43;;;;;;;;;;;12.60;63.30;;;;;;5048607;28;82376;-37
2022/10/09 06:38:09;;;;;;;;;;;12.60;63.20;;;;;;5047814;28;83923;-38
2022/10/09 06:40:35;;;;;;;;;;;12.60;63.80;;;;;;5048693;27;81767;-37
2022/10/09 06:43:01;;;;;;;;;;;12.60;63.30;;;;;;5051203;27;82038;-37
2022/10/09 06:45:26;;;;;;;;;;;12.60;63.30;;;;;;5048430;27;82080;-37
2022/10/09 06:47:52;;;;;;;;;;;12.60;63.30;;;;;;5048713;28;82716;-37
2022/10/09 06:50:17;;;;;;;;;;;12.60;63.30;;;;;;5048203;28;82245;-37
2022/10/09 06:52:43;;;;;;;;;;;12.60;63.20;;;;;;5048493;27;82032;-37
2022/10/09 06:55:08;;;;;;;;;;;12.70;63.30;;;;;;5049178;28;82425;-37
2022/10/09 06:57:34;;;;;;;;;;;12.70;63.30;;;;;;5048373;28;82910;-37
2022/10/09 06:59:59;;;;;;;;;;;12.70;63.30;;;;;;5048422;28;82095;-37
2022/10/09 07:02:25;;;;;;;;;;;12.60;63.20;;;;;;5047669;28;82764;-37
2022/10/09 07:04:50;;;;;;;;;;;12.60;63.30;;;;;;5050533;28;82933;-37
2022/10/09 07:07:16;;;;;;;;;;;12.60;63.30;;;;;;5048324;28;82402;-37
2022/10/09 07:09:41;;;;;;;;;;;12.60;63.30;;;;;;5048057;28;83097;-37
2022/10/09 07:12:07;;;;;;;;;;;12.60;63.40;;;;;;5048368;28;81937;-37
2022/10/09 07:14:32;;;;;;;;;;;12.60;63.40;;;;;;5048232;28;82435;-37
2022/10/09 07:16:58;;;;;;;;;;;12.60;63.70;;;;;;5047802;28;83213;-37
2022/10/09 07:19:23;;;;;;;;;;;12.60;63.60;;;;;;5048610;28;81218;-37
2022/10/09 07:21:49;;;;;;;;;;;12.60;63.60;;;;;;5048088;28;81919;-37
2022/10/09 07:24:15;;;;;;;;;;;12.60;63.70;;;;;;5047173;28;83212;-37
2022/10/09 07:26:43;;;;;;;;;;;12.60;63.90;;;;;;5049993;27;82899;-37
2022/10/09 07:29:09;;;;;;;;;;;12.50;63.90;;;;;;5047720;28;83750;-37
2022/10/09 07:31:35;;;;;;;;;;;12.60;63.80;;;;;;5047666;27;82083;-37
2022/10/09 07:34:01;;;;;;;;;;;12.60;63.90;;;;;;5048004;27;81964;-37
2022/10/09 07:36:26;;;;;;;;;;;12.60;63.80;;;;;;5047478;27;82933;-37
2022/10/09 07:38:53;;;;;;;;;;;12.60;63.80;;;;;;5047851;28;82190;-37
2022/10/09 07:41:19;;;;;;;;;;;12.60;64.00;;;;;;5047712;27;81984;-37
2022/10/09 07:43:45;;;;;;;;;;;12.60;63.80;;;;;;5047593;27;82015;-37
2022/10/09 07:46:11;;;;;;;;;;;12.60;63.90;;;;;;5047635;28;81997;-37
2022/10/09 07:48:37;;;;;;;;;;;12.60;63.90;;;;;;5049908;27;82388;-37
2022/10/09 07:51:10;;;;;;;;;;;12.60;64.00;;;;;;5046577;27;83144;-37
2022/10/09 07:53:36;;;;;;;;;;;12.60;64.20;;;;;;5047245;27;82486;-37
2022/10/09 07:56:03;;;;;;;;;;;12.50;64.20;;;;;;5047252;27;83136;-37
2022/10/09 07:58:28;;;;;;;;;;;12.60;64.20;;;;;;5045622;28;82115;-37
2022/10/09 08:00:54;;;;;;;;;;;12.60;64.20;;;;;;5047449;28;82725;-37
2022/10/09 08:03:19;;;;;;;;;;;12.60;64.20;;;;;;5047072;28;82583;-37
2022/10/09 08:05:52;;;;;;;;;;;12.60;64.30;;;;;;5047295;28;82214;-37
2022/10/09 08:08:17;;;;;;;;;;;12.60;64.30;;;;;;5050390;28;82474;-37
2022/10/09 08:10:43;;;;;;;;;;;12.60;64.40;;;;;;5047220;27;81832;-37
2022/10/09 08:13:08;;;;;;;;;;;12.60;64.40;;;;;;5047142;28;82701;-37
2022/10/09 08:15:38;;;;;;;;;;;12.60;64.50;;;;;;5046069;28;84061;-37
2022/10/09 08:18:04;;;;;;;;;;;12.60;64.70;;;;;;5046599;28;82304;-37
2022/10/09 08:20:29;;;;;;;;;;;12.60;64.60;;;;;;5047056;27;82375;-37
2022/10/09 08:22:54;;;;;;;;;;;12.60;64.70;;;;;;5046191;28;83160;-37
2022/10/09 08:25:20;;;;;;;;;;;12.50;64.80;;;;;;5046978;28;82008;-37
2022/10/09 08:27:45;;;;;;;;;;;12.60;64.70;;;;;;5046923;28;82531;-37
2022/10/09 08:30:11;;;;;;;;;;;12.60;64.90;;;;;;5049411;28;82233;-37
2022/10/09 08:32:37;;;;;;;;;;;12.60;64.90;;;;;;5046829;27;81946;-37
2022/10/09 08:35:02;;;;;;;;;;;12.60;64.90;;;;;;5046446;28;82124;-37
2022/10/09 08:37:28;;;;;;;;;;;12.50;64.90;;;;;;5046580;27;82205;-37
2022/10/09 08:39:53;;;;;;;;;;;12.60;65.00;;;;;;5046265;28;82772;-37
2022/10/09 08:42:25;;;;;;;;;;;12.60;65.20;;;;;;5046449;28;83127;-37
2022/10/09 08:44:51;;;;;;;;;;;12.60;65.10;;;;;;5046705;28;81932;-37
2022/10/09 08:47:36;;;;;;;;;;;12.60;65.30;;;;;;5046375;27;82292;-37
2022/10/09 08:50:09;;;;;;;;;;;12.60;65.10;;;;;;5046297;27;82881;-37
2022/10/09 08:52:49;;;;;;;;;;;12.60;65.10;;;;;;5049223;28;81937;-37
2022/10/09 08:55:18;;;;;;;;;;;12.70;65.00;;;;;;5045739;27;82953;-37
2022/10/09 08:57:45;;;;;;;;;;;12.60;65.10;;;;;;5046444;27;81403;-37
2022/10/09 09:00:18;;;;;;;;;;;12.70;65.00;;;;;;5046555;27;82898;-38
2022/10/09 09:02:44;;;;;;;;;;;12.70;64.90;;;;;;5046148;27;83042;-37
2022/10/09 09:05:24;;;;;;;;;;;12.70;64.80;;;;;;5045522;27;82987;-37
2022/10/09 09:08:15;;;;;;;;;;;12.80;64.80;;;;;;5046466;28;83439;-37
2022/10/09 09:11:10;;;;;;;;;;;12.80;65.00;;;;;;5046163;27;82174;-37
2022/10/09 09:13:41;;;;;;;;;;;12.70;65.00;;;;;;5046244;28;81944;-37
2022/10/09 09:16:10;;;;;;;;;;;12.80;65.00;;;;;;5048818;28;82055;-37
2022/10/09 09:18:38;;;;;;;;;;;12.80;65.10;;;;;;5046149;27;82235;-37
2022/10/09 09:21:10;;;;;;;;;;;12.80;65.10;;;;;;5046050;28;82406;-37
2022/10/09 09:23:38;;;;;;;;;;;12.80;65.30;;;;;;5045845;27;82653;-37
2022/10/09 09:26:08;;;;;;;;;;;12.80;65.20;;;;;;5046018;27;82008;-37
2022/10/09 09:28:34;;;;;;;;;;;12.90;65.10;;;;;;5045850;27;81850;-37
2022/10/09 09:31:04;;;;;;;;;;;12.80;65.10;;;;;;5044844;28;84049;-37
2022/10/09 09:33:39;;;;;;;;;;;12.90;65.10;;;;;;5045901;28;81931;-37
2022/10/09 09:36:04;;;;;;;;;;;12.90;65.00;;;;;;5046021;27;82360;-37
2022/10/09 09:38:30;;;;;;;;;;;12.90;65.00;;;;;;5048449;28;83116;-37
2022/10/09 09:40:55;;;;;;;;;;;12.90;65.00;;;;;;5045991;28;82509;-37
2022/10/09 09:43:22;;;;;;;;;;;12.90;65.10;;;;;;5045596;28;82321;-37
2022/10/09 09:45:51;;;;;;;;;;;12.90;65.10;;;;;;5045591;27;82015;-37
2022/10/09 09:48:20;;;;;;;;;;;12.90;65.30;;;;;;5046106;27;81684;-37
2022/10/09 09:50:50;;;;;;;;;;;13.00;65.10;;;;;;5045486;27;83177;-38
2022/10/09 09:53:32;;;;;;;;;;;13.00;65.10;;;;;;5045678;27;81944;-37
2022/10/09 09:55:57;;;;;;;;;;;13.00;65.10;;;;;;5044987;27;82871;-37
2022/10/09 09:58:26;;;;;;;;;;;13.00;65.00;;;;;;5045361;27;83000;-37
2022/10/09 10:00:54;;;;;;;;;;;13.00;65.00;;;;;;5048197;27;82036;-37
2022/10/09 10:03:20;;;;;;;;;;;13.10;65.00;;;;;;5045472;27;83182;-37
2022/10/09 10:05:46;;;;;;;;;;;13.10;65.00;;;;;;5046366;27;82096;-38
2022/10/09 10:08:12;;;;;;;;;;;13.10;65.10;;;;;;5049175;27;82321;-37
2022/10/09 10:10:42;;;;;;;;;;;13.10;65.40;;;;;;5048918;27;83132;-37
2022/10/09 10:13:14;;;;;;;;;;;13.10;65.50;;;;;;5049404;28;81350;-37
2022/10/09 10:15:46;;;;;;;;;;;13.20;65.60;;;;;;5048723;27;82437;-38
2022/10/09 10:18:14;;;;;;;;;;;13.20;65.60;;;;;;5048863;28;83116;-38
2022/10/09 10:21:00;;;;;;;;;;;13.10;65.60;;;;;;5050927;27;82950;-37
2022/10/09 10:23:44;;;;;;;;;;;13.20;65.60;;;;;;5047796;28;83032;-38
2022/10/09 10:26:13;;;;;;;;;;;13.20;65.50;;;;;;5048688;27;82046;-37
2022/10/09 10:28:47;;;;;;;;;;;13.20;65.80;;;;;;5048741;28;81973;-37
2022/10/09 10:31:16;;;;;;;;;;;13.20;65.90;;;;;;5048405;27;83033;-37
2022/10/09 10:33:42;;;;;;;;;;;13.30;66.10;;;;;;5048421;27;82007;-38
2022/10/09 10:36:08;;;;;;;;;;;13.30;66.70;;;;;;5048422;27;82429;-37
2022/10/09 10:38:38;;;;;;;;;;;13.30;66.90;;;;;;5048827;27;82520;-37
2022/10/09 10:41:21;;;;;;;;;;;13.30;66.10;;;;;;5048451;27;82047;-38
2022/10/09 10:43:52;;;;;;;;;;;13.30;66.20;;;;;;5051008;27;82337;-38
2022/10/09 10:46:24;;;;;;;;;;;13.40;66.40;;;;;;5047730;27;82978;-38
2022/10/09 10:48:50;;;;;;;;;;;13.40;66.40;;;;;;5048380;27;83183;-37
2022/10/09 10:51:34;;;;;;;;;;;13.40;66.20;;;;;;5048379;27;82793;-38
2022/10/09 10:54:08;;;;;;;;;;;13.40;66.10;;;;;;5048364;27;82014;-37
2022/10/09 10:56:39;;;;;;;;;;;13.40;66.10;;;;;;5048493;28;82254;-37
2022/10/09 10:59:04;;;;;;;;;;;13.40;66.10;;;;;;5047932;28;82887;-37
2022/10/09 11:01:33;;;;;;;;;;;13.40;66.10;;;;;;5048478;28;82098;-38
2022/10/09 11:04:30;;;;;;;;;;;13.50;66.30;;;;;;5048639;28;82391;-37
2022/10/09 11:07:08;;;;;;;;;;;13.50;66.30;;;;;;5037988;27;83195;-37
2022/10/09 11:09:45;;;;;;;;;;;13.50;66.30;;;;;;5047949;28;81928;-38
2022/10/09 11:12:13;;;;;;;;;;;13.50;66.20;;;;;;5047316;28;83280;-38
2022/10/09 11:14:42;;;;;;;;;;;13.50;66.20;;;;;;5048082;27;82022;-37
2022/10/09 11:17:18;;;;;;;;;;;13.50;66.20;;;;;;5047814;27;81891;-38
2022/10/09 11:19:49;;;;;;;;;;;13.60;66.20;;;;;;5047842;28;82950;-37
2022/10/09 11:22:30;;;;;;;;;;;13.60;66.30;;;;;;5047929;27;82057;-38
2022/10/09 11:25:07;;;;;;;;;;;13.60;66.10;;;;;;5047771;28;82402;-37
2022/10/09 11:27:33;;;;;;;;;;;13.60;66.10;;;;;;5047721;27;82994;-37
2022/10/09 11:30:01;;;;;;;;;;;13.70;66.10;;;;;;5051238;28;81314;-37
2022/10/09 11:32:29;;;;;;;;;;;13.70;66.10;;;;;;5046947;27;83439;-37
2022/10/09 11:35:01;;;;;;;;;;;13.70;66.00;;;;;;5047798;28;82158;-38
2022/10/09 11:37:33;;;;;;;;;;;13.70;66.30;;;;;;5046981;28;83462;-37
2022/10/09 11:40:02;;;;;;;;;;;13.80;66.10;;;;;;5047488;27;82948;-37
2022/10/09 11:42:27;;;;;;;;;;;13.80;66.00;;;;;;5047437;27;82044;-37
2022/10/09 11:45:19;;;;;;;;;;;13.80;66.20;;;;;;5047501;28;82977;-38
2022/10/09 11:48:01;;;;;;;;;;;13.80;66.10;;;;;;5045845;28;83200;-37
2022/10/09 11:50:33;;;;;;;;;;;13.80;66.00;;;;;;5047278;27;81942;-38
2022/10/09 11:53:02;;;;;;;;;;;13.80;65.90;;;;;;5049991;27;82337;-37
2022/10/09 11:55:29;;;;;;;;;;;13.90;66.20;;;;;;5047604;28;81026;-38
2022/10/09 11:58:06;;;;;;;;;;;13.90;65.90;;;;;;5047309;28;82081;-37
2022/10/09 12:00:33;;;;;;;;;;;13.90;65.80;;;;;;5047208;28;82907;-37
2022/10/09 12:03:00;;;;;;;;;;;13.90;65.50;;;;;;5046533;28;82909;-37
2022/10/09 12:05:28;;;;;;;;;;;13.90;65.60;;;;;;5047119;28;83380;-37
2022/10/09 12:08:04;;;;;;;;;;;13.90;65.60;;;;;;5046782;28;83017;-37
2022/10/09 12:10:32;;;;;;;;;;;14.00;65.70;;;;;;5047390;27;81975;-38
2022/10/09 12:12:59;;;;;;;;;;;14.00;65.70;;;;;;5047049;28;82330;-38
2022/10/09 12:15:43;;;;;;;;;;;14.00;65.70;;;;;;5049498;27;82170;-38
2022/10/09 12:18:14;;;;;;;;;;;14.00;65.70;;;;;;5047032;27;82562;-37
2022/10/09 12:20:43;;;;;;;;;;;14.10;65.70;;;;;;5046682;27;82342;-37
2022/10/09 12:23:09;;;;;;;;;;;14.10;65.90;;;;;;5046342;27;82063;-38
2022/10/09 12:25:41;;;;;;;;;;;14.10;65.70;;;;;;5046901;27;82353;-37
2022/10/09 12:28:15;;;;;;;;;;;14.10;65.80;;;;;;5045048;27;86663;-37
2022/10/09 12:30:40;;;;;;;;;;;14.10;66.00;;;;;;5046850;28;81889;-38
2022/10/09 12:33:14;;;;;;;;;;;14.20;66.10;;;;;;5046425;27;82246;-38
2022/10/09 12:35:45;;;;;;;;;;;14.20;66.20;;;;;;5049448;27;83249;-38
2022/10/09 12:38:21;;;;;;;;;;;14.20;66.00;;;;;;5046794;27;82474;-37
2022/10/09 12:40:47;;;;;;;;;;;14.20;66.00;;;;;;5046408;27;83744;-38
2022/10/09 12:43:15;;;;;;;;;;;14.30;66.00;;;;;;5046589;27;82043;-38
2022/10/09 12:45:42;;;;;;;;;;;14.30;66.00;;;;;;5046755;27;82831;-37
2022/10/09 12:48:09;;;;;;;;;;;14.30;66.00;;;;;;5046587;27;82921;-37
2022/10/09 12:50:35;;;;;;;;;;;14.30;65.90;;;;;;5045611;28;82421;-38
2022/10/09 12:53:04;;;;;;;;;;;14.40;66.30;;;;;;5045989;27;82945;-40
2022/10/09 12:55:30;;;;;;;;;;;14.70;66.20;;;;;;5046329;28;82492;-40
2022/10/09 12:58:03;;;;;;;;;;;14.90;65.10;;;;;;5049069;28;82042;-40
2022/10/09 13:00:30;;;;;;;;;;;15.10;64.50;;;;;;5046415;28;82174;-39
2022/10/09 13:02:56;;;;;;;;;;;15.20;64.10;;;;;;5046336;28;81920;-39
2022/10/09 13:05:21;;;;;;;;;;;15.30;64.10;;;;;;5046269;28;82043;-39
2022/10/09 13:07:52;;;;;;;;;;;15.40;64.20;;;;;;5046125;28;83165;-40
2022/10/09 13:10:20;;;;;;;;;;;15.30;64.80;;;;;;5046546;28;81314;-39
2022/10/09 13:12:48;;;;;;;;;;;15.30;65.00;;;;;;5046088;27;82233;-39
2022/10/09 13:15:42;;;;;;;;;;;15.30;65.20;;;;;;5046002;28;83223;-39
2022/10/09 13:18:21;;;;;;;;;;;15.40;65.00;;;;;;5036114;28;82956;-40
2022/10/09 13:20:57;;;;;;;;;;;15.30;65.10;;;;;;5048794;28;83425;-39
2022/10/09 13:23:27;;;;;;;;;;;15.40;65.40;;;;;;5044229;28;81873;-40
2022/10/09 13:25:53;;;;;;;;;;;15.40;65.40;;;;;;5045929;27;82330;-40
2022/10/09 13:28:19;;;;;;;;;;;15.40;65.20;;;;;;5045849;28;82313;-39
2022/10/09 13:30:45;;;;;;;;;;;15.60;65.10;;;;;;5046028;28;82055;-39
2022/10/09 13:33:13;;;;;;;;;;;15.70;64.80;;;;;;5045845;27;82251;-39
2022/10/09 13:35:39;;;;;;;;;;;15.80;64.10;;;;;;5046510;28;82508;-39
2022/10/09 13:38:05;;;;;;;;;;;15.90;64.40;;;;;;5045626;28;81992;-39
2022/10/09 13:40:30;;;;;;;;;;;15.90;64.30;;;;;;5047723;27;82462;-39
2022/10/09 13:42:58;;;;;;;;;;;15.90;63.80;;;;;;5051473;28;83971;-40
2022/10/09 13:45:24;;;;;;;;;;;16.00;63.30;;;;;;5049321;28;83450;-41
2022/10/09 13:47:49;;;;;;;;;;;16.00;63.40;;;;;;5049395;28;83054;-41
2022/10/09 13:50:15;;;;;;;;;;;16.10;63.10;;;;;;5049270;28;81840;-39
2022/10/09 13:52:40;;;;;;;;;;;16.10;62.80;;;;;;5049366;27;82775;-41
2022/10/09 13:55:06;;;;;;;;;;;16.20;63.40;;;;;;5049168;28;83178;-39
2022/10/09 13:57:32;;;;;;;;;;;16.10;63.00;;;;;;5049324;28;81956;-39
2022/10/09 13:59:58;;;;;;;;;;;16.10;62.80;;;;;;5049683;27;82497;-39
2022/10/09 14:02:24;;;;;;;;;;;16.10;62.70;;;;;;5049043;28;82893;-39
2022/10/09 14:04:50;;;;;;;;;;;16.10;62.80;;;;;;5051694;28;82002;-39
2022/10/09 14:07:15;;;;;;;;;;;16.10;62.40;;;;;;5048352;28;83188;-37
2022/10/09 14:09:40;;;;;;;;;;;16.00;62.90;;;;;;5049317;28;82051;-39
2022/10/09 14:12:06;;;;;;;;;;;16.00;63.50;;;;;;5048898;28;82563;-40
2022/10/09 14:14:32;;;;;;;;;;;16.00;63.90;;;;;;5048807;28;82993;-38
2022/10/09 14:16:57;;;;;;;;;;;16.00;63.30;;;;;;5048798;28;82190;-38
2022/10/09 14:19:26;;;;;;;;;;;16.10;62.70;;;;;;5048890;28;81937;-37
2022/10/09 14:21:52;;;;;;;;;;;16.00;63.10;;;;;;5048419;28;82991;-37